Terminal Aerodrome Forecast
Issued by NWS

Home | Current Version | Previous Version | Text Only | Print | Product List | Glossary On
Versions: 1 2 3 4 5 6 7 8 9 10 11 12 13 14 15 16 17 18 19 20
000
FTUS46 KPDT 291600 AAD
TAFRDM
TAF AMD
KRDM 291625Z 2916/3012 00000KT 3/4SM BR VV004
      TEMPO 2916/2917 1/4SM FG VV003
     FM291700 00000KT 1SM BR SCT004 OVC005
      TEMPO 2918/2919 4SM BR SCT004 OVC008
     FM291900 VRB03KT P6SM SCT008 BKN150
     FM292100 34006KT P6SM SCT130 BKN150
     FM300400 30003KT 1SM BR OVC003=

USA.gov is the U.S. government's official web portal to all federal, state and local government web resources and services.